sensor_id;sensor_type;location;lat;lon;timestamp;temperature;humidity
20946;DHT22;10632;51.276;7.116;2024-01-15T00:00:46;-0.70;99.90
20946;DHT22;10632;51.276;7.116;2024-01-15T00:03:14;-0.60;99.90
20946;DHT22;10632;51.276;7.116;2024-01-15T00:05:41;-0.60;99.90
20946;DHT22;10632;51.276;7.116;2024-01-15T00:08:08;-0.60;99.90
20946;DHT22;10632;51.276;7.116;2024-01-15T00:10:34;-0.60;99.90
20946;DHT22;10632;51.276;7.116;2024-01-15T00:13:01;-0.60;99.90
20946;DHT22;10632;51.276;7.116;2024-01-15T00:15:32;-0.60;99.90
20946;DHT22;10632;51.276;7.116;2024-01-15T00:17:59;-0.60;99.90
20946;DHT22;10632;51.276;7.116;2024-01-15T00:20:26;-0.60;99.90
20946;DHT22;10632;51.276;7.116;2024-01-15T00:22:53;-0.60;99.90
20946;DHT22;10632;51.276;7.116;2024-01-15T00:25:23;-0.60;99.90
20946;DHT22;10632;51.276;7.116;2024-01-15T00:27:50;-0.50;99.90
20946;DHT22;10632;51.276;7.116;2024-01-15T00:30:17;-0.50;99.90
20946;DHT22;10632;51.276;7.116;2024-01-15T00:32:45;-0.50;99.90
20946;DHT22;10632;51.276;7.116;2024-01-15T00:35:12;-0.50;99.90
20946;DHT22;10632;51.276;7.116;2024-01-15T00:37:39;-0.50;99.90
20946;DHT22;10632;51.276;7.116;2024-01-15T00:40:07;-0.50;99.90
20946;DHT22;10632;51.276;7.116;2024-01-15T00:42:34;-0.50;99.90
20946;DHT22;10632;51.276;7.116;2024-01-15T00:45:01;-0.50;99.90
20946;DHT22;10632;51.276;7.116;2024-01-15T00:47:30;-0.50;99.90
20946;DHT22;10632;51.276;7.116;2024-01-15T00:49:59;-0.50;99.90
20946;DHT22;10632;51.276;7.116;2024-01-15T00:52:29;-0.40;99.90
20946;DHT22;10632;51.276;7.116;2024-01-15T00:54:58;-0.40;99.90
20946;DHT22;10632;51.276;7.116;2024-01-15T00:57:25;-0.40;99.90
20946;DHT22;10632;51.276;7.116;2024-01-15T00:59:52;-0.40;99.90
20946;DHT22;10632;51.276;7.116;2024-01-15T01:02:19;-0.40;99.90
20946;DHT22;10632;51.276;7.116;2024-01-15T01:04:46;-0.40;99.90
20946;DHT22;10632;51.276;7.116;2024-01-15T01:07:14;-0.40;99.90
20946;DHT22;10632;51.276;7.116;2024-01-15T01:09:41;-0.40;99.90
20946;DHT22;10632;51.276;7.116;2024-01-15T01:12:09;-0.40;99.90
20946;DHT22;10632;51.276;7.116;2024-01-15T01:14:38;-0.40;99.90
20946;DHT22;10632;51.276;7.116;2024-01-15T01:17:05;-0.30;99.90
20946;DHT22;10632;51.276;7.116;2024-01-15T01:19:32;-0.40;99.90
20946;DHT22;10632;51.276;7.116;2024-01-15T01:21:59;-0.40;99.90
20946;DHT22;10632;51.276;7.116;2024-01-15T01:24:27;-0.40;99.90
20946;DHT22;10632;51.276;7.116;2024-01-15T01:26:54;-0.30;99.90
20946;DHT22;10632;51.276;7.116;2024-01-15T01:29:23;-0.40;99.90
20946;DHT22;10632;51.276;7.116;2024-01-15T01:31:53;-0.30;99.90
20946;DHT22;10632;51.276;7.116;2024-01-15T01:34:20;-0.30;99.90
20946;DHT22;10632;51.276;7.116;2024-01-15T01:36:47;-0.30;99.90
20946;DHT22;10632;51.276;7.116;2024-01-15T01:39:14;-0.30;99.90
20946;DHT22;10632;51.276;7.116;2024-01-15T01:41:42;-0.30;99.90
20946;DHT22;10632;51.276;7.116;2024-01-15T01:44:09;-0.30;99.90
20946;DHT22;10632;51.276;7.116;2024-01-15T01:46:36;-0.30;99.90
20946;DHT22;10632;51.276;7.116;2024-01-15T01:49:06;-0.30;99.90
20946;DHT22;10632;51.276;7.116;2024-01-15T01:51:34;-0.30;99.90
20946;DHT22;10632;51.276;7.116;2024-01-15T01:54:02;-0.30;99.90
20946;DHT22;10632;51.276;7.116;2024-01-15T01:56:29;-0.30;99.90
20946;DHT22;10632;51.276;7.116;2024-01-15T01:58:57;-0.30;99.90
20946;DHT22;10632;51.276;7.116;2024-01-15T02:01:26;-0.30;99.90
20946;DHT22;10632;51.276;7.116;2024-01-15T02:03:58;-0.30;99.90
20946;DHT22;10632;51.276;7.116;2024-01-15T02:06:25;-0.30;99.90
20946;DHT22;10632;51.276;7.116;2024-01-15T02:08:52;-0.30;99.90
20946;DHT22;10632;51.276;7.116;2024-01-15T02:11:19;-0.30;99.90
20946;DHT22;10632;51.276;7.116;2024-01-15T02:13:50;-0.30;99.90
20946;DHT22;10632;51.276;7.116;2024-01-15T02:16:21;-0.30;99.90
20946;DHT22;10632;51.276;7.116;2024-01-15T02:18:48;-0.30;99.90
20946;DHT22;10632;51.276;7.116;2024-01-15T02:21:18;-0.20;99.90
20946;DHT22;10632;51.276;7.116;2024-01-15T02:23:46;-0.20;99.90
20946;DHT22;10632;51.276;7.116;2024-01-15T02:26:14;-0.20;99.90
20946;DHT22;10632;51.276;7.116;2024-01-15T02:28:41;-0.20;99.90
20946;DHT22;10632;51.276;7.116;2024-01-15T02:31:11;-0.20;99.90
20946;DHT22;10632;51.276;7.116;2024-01-15T02:33:42;-0.20;99.90
20946;DHT22;10632;51.276;7.116;2024-01-15T02:36:09;-0.20;99.90
20946;DHT22;10632;51.276;7.116;2024-01-15T02:38:36;-0.20;99.90
20946;DHT22;10632;51.276;7.116;2024-01-15T02:41:04;-0.20;99.90
20946;DHT22;10632;51.276;7.116;2024-01-15T02:43:31;-0.20;99.90
20946;DHT22;10632;51.276;7.116;2024-01-15T02:45:58;-0.20;99.90
20946;DHT22;10632;51.276;7.116;2024-01-15T02:48:25;-0.20;99.90
20946;DHT22;10632;51.276;7.116;2024-01-15T02:50:52;-0.20;99.90
20946;DHT22;10632;51.276;7.116;2024-01-15T02:53:19;-0.10;99.90
20946;DHT22;10632;51.276;7.116;2024-01-15T02:55:45;-0.10;99.90
20946;DHT22;10632;51.276;7.116;2024-01-15T02:58:14;-0.20;99.90
20946;DHT22;10632;51.276;7.116;2024-01-15T03:00:41;-0.10;99.90
20946;DHT22;10632;51.276;7.116;2024-01-15T03:03:08;-0.10;99.90
20946;DHT22;10632;51.276;7.116;2024-01-15T03:05:35;-0.10;99.90
20946;DHT22;10632;51.276;7.116;2024-01-15T03:08:01;-0.10;99.90
20946;DHT22;10632;51.276;7.116;2024-01-15T03:10:28;-0.10;99.90
20946;DHT22;10632;51.276;7.116;2024-01-15T03:12:55;-0.10;99.90
20946;DHT22;10632;51.276;7.116;2024-01-15T03:15:23;-0.10;99.90
20946;DHT22;10632;51.276;7.116;2024-01-15T03:17:51;-0.10;99.90
20946;DHT22;10632;51.276;7.116;2024-01-15T03:20:18;-0.10;99.90
20946;DHT22;10632;51.276;7.116;2024-01-15T03:22:45;-0.10;99.90
20946;DHT22;10632;51.276;7.116;2024-01-15T03:25:12;-0.10;99.90
20946;DHT22;10632;51.276;7.116;2024-01-15T03:27:38;-0.10;99.90
20946;DHT22;10632;51.276;7.116;2024-01-15T03:30:06;-0.10;99.90
20946;DHT22;10632;51.276;7.116;2024-01-15T03:32:35;-0.10;99.90
20946;DHT22;10632;51.276;7.116;2024-01-15T03:35:02;-0.10;99.90
20946;DHT22;10632;51.276;7.116;2024-01-15T03:37:29;-0.10;99.90
20946;DHT22;10632;51.276;7.116;2024-01-15T03:39:55;-0.10;99.90
20946;DHT22;10632;51.276;7.116;2024-01-15T03:42:22;-0.10;99.90
20946;DHT22;10632;51.276;7.116;2024-01-15T03:44:49;-0.10;99.90
20946;DHT22;10632;51.276;7.116;2024-01-15T03:47:16;-0.10;99.90
20946;DHT22;10632;51.276;7.116;2024-01-15T03:49:44;-0.10;99.90
20946;DHT22;10632;51.276;7.116;2024-01-15T03:52:11;-0.10;99.90
20946;DHT22;10632;51.276;7.116;2024-01-15T03:54:38;-0.10;99.90
20946;DHT22;10632;51.276;7.116;2024-01-15T03:57:05;-0.10;99.90
20946;DHT22;10632;51.276;7.116;2024-01-15T03:59:32;-0.10;99.90
20946;DHT22;10632;51.276;7.116;2024-01-15T04:01:59;-0.10;99.90
20946;DHT22;10632;51.276;7.116;2024-01-15T04:04:26;-0.10;99.90
20946;DHT22;10632;51.276;7.116;2024-01-15T04:06:54;-0.10;99.90
20946;DHT22;10632;51.276;7.116;2024-01-15T04:09:21;-0.10;99.90
20946;DHT22;10632;51.276;7.116;2024-01-15T04:11:48;-0.10;99.90
20946;DHT22;10632;51.276;7.116;2024-01-15T04:14:15;-0.10;99.90
20946;DHT22;10632;51.276;7.116;2024-01-15T04:16:42;-0.10;99.90
20946;DHT22;10632;51.276;7.116;2024-01-15T04:19:09;-0.20;99.90
20946;DHT22;10632;51.276;7.116;2024-01-15T04:21:37;-0.10;99.90
20946;DHT22;10632;51.276;7.116;2024-01-15T04:24:06;-0.10;99.90
20946;DHT22;10632;51.276;7.116;2024-01-15T04:26:33;-0.10;99.90
20946;DHT22;10632;51.276;7.116;2024-01-15T04:29:06;-0.20;99.90
20946;DHT22;10632;51.276;7.116;2024-01-15T04:31:36;-0.20;99.90
20946;DHT22;10632;51.276;7.116;2024-01-15T04:34:03;-0.20;99.90
20946;DHT22;10632;51.276;7.116;2024-01-15T04:36:30;-0.10;99.90
20946;DHT22;10632;51.276;7.116;2024-01-15T04:38:57;-0.10;99.90
20946;DHT22;10632;51.276;7.116;2024-01-15T04:41:26;-0.10;99.90
20946;DHT22;10632;51.276;7.116;2024-01-15T04:43:55;-0.10;99.90
20946;DHT22;10632;51.276;7.116;2024-01-15T04:46:22;-0.10;99.90
20946;DHT22;10632;51.276;7.116;2024-01-15T04:48:49;-0.10;99.90
20946;DHT22;10632;51.276;7.116;2024-01-15T04:51:17;-0.10;99.90
20946;DHT22;10632;51.276;7.116;2024-01-15T04:53:44;-0.10;99.90
20946;DHT22;10632;51.276;7.116;2024-01-15T04:56:11;-0.10;99.90
20946;DHT22;10632;51.276;7.116;2024-01-15T04:58:39;-0.10;99.90
20946;DHT22;10632;51.276;7.116;2024-01-15T05:01:08;-0.20;99.90
20946;DHT22;10632;51.276;7.116;2024-01-15T05:03:35;-0.10;99.90
20946;DHT22;10632;51.276;7.116;2024-01-15T05:06:03;-0.10;99.90
20946;DHT22;10632;51.276;7.116;2024-01-15T05:08:29;-0.20;99.90
20946;DHT22;10632;51.276;7.116;2024-01-15T05:10:56;-0.10;99.90
20946;DHT22;10632;51.276;7.116;2024-01-15T05:13:23;-0.10;99.90
20946;DHT22;10632;51.276;7.116;2024-01-15T05:15:52;-0.10;99.90
20946;DHT22;10632;51.276;7.116;2024-01-15T05:18:20;-0.10;99.90
20946;DHT22;10632;51.276;7.116;2024-01-15T05:20:46;-0.10;99.90
20946;DHT22;10632;51.276;7.116;2024-01-15T05:23:16;-0.10;99.90
20946;DHT22;10632;51.276;7.116;2024-01-15T05:25:43;-0.20;99.90
20946;DHT22;10632;51.276;7.116;2024-01-15T05:28:10;-0.10;99.90
20946;DHT22;10632;51.276;7.116;2024-01-15T05:30:37;-0.10;99.90
20946;DHT22;10632;51.276;7.116;2024-01-15T05:33:05;-0.20;99.90
20946;DHT22;10632;51.276;7.116;2024-01-15T05:35:32;-0.10;99.90
20946;DHT22;10632;51.276;7.116;2024-01-15T05:37:59;-0.10;99.90
20946;DHT22;10632;51.276;7.116;2024-01-15T05:40:26;-0.10;99.90
20946;DHT22;10632;51.276;7.116;2024-01-15T05:42:52;-0.10;99.90
20946;DHT22;10632;51.276;7.116;2024-01-15T05:45:19;-0.20;99.90
20946;DHT22;10632;51.276;7.116;2024-01-15T05:47:46;-0.10;99.90
20946;DHT22;10632;51.276;7.116;2024-01-15T05:50:15;-0.10;99.90
20946;DHT22;10632;51.276;7.116;2024-01-15T05:52:42;-0.10;99.90
20946;DHT22;10632;51.276;7.116;2024-01-15T05:55:09;-0.10;99.90
20946;DHT22;10632;51.276;7.116;2024-01-15T05:57:36;-0.10;99.90
20946;DHT22;10632;51.276;7.116;2024-01-15T06:00:04;-0.10;99.90
20946;DHT22;10632;51.276;7.116;2024-01-15T06:02:32;-0.10;99.90
20946;DHT22;10632;51.276;7.116;2024-01-15T06:04:58;-0.10;99.90
20946;DHT22;10632;51.276;7.116;2024-01-15T06:07:28;-0.10;99.90
20946;DHT22;10632;51.276;7.116;2024-01-15T06:10:03;-0.10;99.90
20946;DHT22;10632;51.276;7.116;2024-01-15T06:12:30;-0.10;99.90
20946;DHT22;10632;51.276;7.116;2024-01-15T06:14:57;-0.10;99.90
20946;DHT22;10632;51.276;7.116;2024-01-15T06:17:25;-0.10;99.90
20946;DHT22;10632;51.276;7.116;2024-01-15T06:19:54;0.00;99.90
20946;DHT22;10632;51.276;7.116;2024-01-15T06:22:21;-0.10;99.90
20946;DHT22;10632;51.276;7.116;2024-01-15T06:24:49;-0.10;99.90
20946;DHT22;10632;51.276;7.116;2024-01-15T06:27:16;-0.10;99.90
20946;DHT22;10632;51.276;7.116;2024-01-15T06:29:45;0.00;99.90
20946;DHT22;10632;51.276;7.116;2024-01-15T06:32:14;-0.10;99.90
20946;DHT22;10632;51.276;7.116;2024-01-15T06:34:40;0.00;99.90
20946;DHT22;10632;51.276;7.116;2024-01-15T06:37:16;-0.10;99.90
20946;DHT22;10632;51.276;7.116;2024-01-15T06:39:45;0.00;99.90
20946;DHT22;10632;51.276;7.116;2024-01-15T06:42:17;-0.10;99.90
20946;DHT22;10632;51.276;7.116;2024-01-15T06:44:43;0.00;99.90
20946;DHT22;10632;51.276;7.116;2024-01-15T06:47:10;0.00;99.90
20946;DHT22;10632;51.276;7.116;2024-01-15T06:49:37;0.00;99.90
20946;DHT22;10632;51.276;7.116;2024-01-15T06:52:05;0.00;99.90
20946;DHT22;10632;51.276;7.116;2024-01-15T06:54:32;-0.10;99.90
20946;DHT22;10632;51.276;7.116;2024-01-15T06:56:59;0.00;99.90
20946;DHT22;10632;51.276;7.116;2024-01-15T06:59:27;0.00;99.90
20946;DHT22;10632;51.276;7.116;2024-01-15T07:01:54;0.00;99.90
20946;DHT22;10632;51.276;7.116;2024-01-15T07:04:21;0.00;99.90
20946;DHT22;10632;51.276;7.116;2024-01-15T07:06:48;0.00;99.90
20946;DHT22;10632;51.276;7.116;2024-01-15T07:09:15;0.00;99.90
20946;DHT22;10632;51.276;7.116;2024-01-15T07:11:44;0.00;99.90
20946;DHT22;10632;51.276;7.116;2024-01-15T07:14:12;0.00;99.90
20946;DHT22;10632;51.276;7.116;2024-01-15T07:16:41;0.00;99.90
20946;DHT22;10632;51.276;7.116;2024-01-15T07:19:07;0.00;99.90
20946;DHT22;10632;51.276;7.116;2024-01-15T07:21:34;0.00;99.90
20946;DHT22;10632;51.276;7.116;2024-01-15T07:24:01;0.00;99.90
20946;DHT22;10632;51.276;7.116;2024-01-15T07:26:29;0.00;99.90
20946;DHT22;10632;51.276;7.116;2024-01-15T07:28:56;0.00;99.90
20946;DHT22;10632;51.276;7.116;2024-01-15T07:31:23;0.00;99.90
20946;DHT22;10632;51.276;7.116;2024-01-15T07:33:51;-0.10;99.90
20946;DHT22;10632;51.276;7.116;2024-01-15T07:36:18;0.00;99.90
20946;DHT22;10632;51.276;7.116;2024-01-15T07:38:45;0.00;99.90
20946;DHT22;10632;51.276;7.116;2024-01-15T07:41:13;-0.10;99.90
20946;DHT22;10632;51.276;7.116;2024-01-15T07:43:40;-0.10;99.90
20946;DHT22;10632;51.276;7.116;2024-01-15T07:46:07;0.00;99.90
20946;DHT22;10632;51.276;7.116;2024-01-15T07:48:34;0.00;99.90
20946;DHT22;10632;51.276;7.116;2024-01-15T07:51:09;0.00;99.90
20946;DHT22;10632;51.276;7.116;2024-01-15T07:53:36;-0.10;99.90
20946;DHT22;10632;51.276;7.116;2024-01-15T07:56:05;0.00;99.90
20946;DHT22;10632;51.276;7.116;2024-01-15T07:58:32;0.00;99.90
20946;DHT22;10632;51.276;7.116;2024-01-15T08:01:02;0.00;99.90
20946;DHT22;10632;51.276;7.116;2024-01-15T08:03:32;-0.10;99.90
20946;DHT22;10632;51.276;7.116;2024-01-15T08:05:59;0.00;99.90
20946;DHT22;10632;51.276;7.116;2024-01-15T08:08:27;0.00;99.90
20946;DHT22;10632;51.276;7.116;2024-01-15T08:10:54;0.00;99.90
20946;DHT22;10632;51.276;7.116;2024-01-15T08:13:23;0.00;99.90
20946;DHT22;10632;51.276;7.116;2024-01-15T08:15:56;0.00;99.90
20946;DHT22;10632;51.276;7.116;2024-01-15T08:18:22;0.00;99.90
20946;DHT22;10632;51.276;7.116;2024-01-15T08:20:49;0.00;99.90
20946;DHT22;10632;51.276;7.116;2024-01-15T08:23:17;0.00;99.90
20946;DHT22;10632;51.276;7.116;2024-01-15T08:25:45;0.00;99.90
20946;DHT22;10632;51.276;7.116;2024-01-15T08:28:12;0.00;99.90
20946;DHT22;10632;51.276;7.116;2024-01-15T08:30:39;0.00;99.90
20946;DHT22;10632;51.276;7.116;2024-01-15T08:33:06;0.00;99.90
20946;DHT22;10632;51.276;7.116;2024-01-15T08:35:36;0.00;99.90
20946;DHT22;10632;51.276;7.116;2024-01-15T08:38:03;0.00;99.90
20946;DHT22;10632;51.276;7.116;2024-01-15T08:40:34;0.00;99.90
20946;DHT22;10632;51.276;7.116;2024-01-15T08:43:05;0.00;99.90
20946;DHT22;10632;51.276;7.116;2024-01-15T08:45:32;0.00;99.90
20946;DHT22;10632;51.276;7.116;2024-01-15T08:47:59;-0.10;99.90
20946;DHT22;10632;51.276;7.116;2024-01-15T08:50:26;-0.10;99.90
20946;DHT22;10632;51.276;7.116;2024-01-15T08:52:53;-0.10;99.90
20946;DHT22;10632;51.276;7.116;2024-01-15T08:55:21;-0.10;99.90
20946;DHT22;10632;51.276;7.116;2024-01-15T08:57:48;-0.10;99.90
20946;DHT22;10632;51.276;7.116;2024-01-15T09:00:17;-0.10;99.90
20946;DHT22;10632;51.276;7.116;2024-01-15T09:02:44;-0.10;99.90
20946;DHT22;10632;51.276;7.116;2024-01-15T09:05:11;-0.10;99.90
20946;DHT22;10632;51.276;7.116;2024-01-15T09:07:38;-0.10;99.90
20946;DHT22;10632;51.276;7.116;2024-01-15T09:10:06;-0.20;99.90
20946;DHT22;10632;51.276;7.116;2024-01-15T09:12:33;-0.20;99.90
20946;DHT22;10632;51.276;7.116;2024-01-15T09:15:03;-0.10;99.90
20946;DHT22;10632;51.276;7.116;2024-01-15T09:17:31;-0.10;99.90
20946;DHT22;10632;51.276;7.116;2024-01-15T09:19:59;-0.20;99.90
20946;DHT22;10632;51.276;7.116;2024-01-15T09:22:25;-0.20;99.90
20946;DHT22;10632;51.276;7.116;2024-01-15T09:24:54;-0.20;99.90
20946;DHT22;10632;51.276;7.116;2024-01-15T09:27:21;-0.20;99.90
20946;DHT22;10632;51.276;7.116;2024-01-15T09:29:48;-0.10;99.90
20946;DHT22;10632;51.276;7.116;2024-01-15T09:32:15;-0.20;99.90
20946;DHT22;10632;51.276;7.116;2024-01-15T09:34:44;-0.20;99.90
20946;DHT22;10632;51.276;7.116;2024-01-15T09:37:11;-0.20;99.90
20946;DHT22;10632;51.276;7.116;2024-01-15T09:39:38;-0.20;99.90
20946;DHT22;10632;51.276;7.116;2024-01-15T09:42:05;-0.20;99.90
20946;DHT22;10632;51.276;7.116;2024-01-15T09:44:32;-0.30;99.90
20946;DHT22;10632;51.276;7.116;2024-01-15T09:46:59;-0.30;99.90
20946;DHT22;10632;51.276;7.116;2024-01-15T09:49:26;-0.30;99.90
20946;DHT22;10632;51.276;7.116;2024-01-15T09:51:56;-0.30;99.90
20946;DHT22;10632;51.276;7.116;2024-01-15T09:54:23;-0.30;99.90
20946;DHT22;10632;51.276;7.116;2024-01-15T09:56:51;-0.30;99.90
20946;DHT22;10632;51.276;7.116;2024-01-15T09:59:18;-0.30;99.90
20946;DHT22;10632;51.276;7.116;2024-01-15T10:01:45;-0.20;99.90
20946;DHT22;10632;51.276;7.116;2024-01-15T10:04:13;-0.20;99.90
20946;DHT22;10632;51.276;7.116;2024-01-15T10:06:44;-0.20;99.90
20946;DHT22;10632;51.276;7.116;2024-01-15T10:09:13;-0.30;99.90
20946;DHT22;10632;51.276;7.116;2024-01-15T10:11:41;-0.20;99.90
20946;DHT22;10632;51.276;7.116;2024-01-15T10:14:09;-0.20;99.90
20946;DHT22;10632;51.276;7.116;2024-01-15T10:16:38;-0.30;99.90
20946;DHT22;10632;51.276;7.116;2024-01-15T10:19:05;-0.20;99.90
20946;DHT22;10632;51.276;7.116;2024-01-15T10:21:32;-0.30;99.90
20946;DHT22;10632;51.276;7.116;2024-01-15T10:24:01;-0.30;99.90
20946;DHT22;10632;51.276;7.116;2024-01-15T10:26:31;-0.30;99.90
20946;DHT22;10632;51.276;7.116;2024-01-15T10:28:58;-0.30;99.90
20946;DHT22;10632;51.276;7.116;2024-01-15T10:31:26;-0.30;99.90
20946;DHT22;10632;51.276;7.116;2024-01-15T10:33:58;-0.30;99.90
20946;DHT22;10632;51.276;7.116;2024-01-15T10:36:36;-0.20;99.90
20946;DHT22;10632;51.276;7.116;2024-01-15T10:39:10;-0.30;99.90
20946;DHT22;10632;51.276;7.116;2024-01-15T10:41:39;-0.20;99.90
20946;DHT22;10632;51.276;7.116;2024-01-15T10:44:06;-0.20;99.90
20946;DHT22;10632;51.276;7.116;2024-01-15T10:46:33;-0.20;99.90
20946;DHT22;10632;51.276;7.116;2024-01-15T10:49:01;-0.30;99.90
20946;DHT22;10632;51.276;7.116;2024-01-15T10:51:29;-0.20;99.90
20946;DHT22;10632;51.276;7.116;2024-01-15T10:53:56;-0.30;99.90
20946;DHT22;10632;51.276;7.116;2024-01-15T10:56:24;-0.20;99.90
20946;DHT22;10632;51.276;7.116;2024-01-15T10:58:54;-0.30;99.90
20946;DHT22;10632;51.276;7.116;2024-01-15T11:01:25;-0.20;99.90
20946;DHT22;10632;51.276;7.116;2024-01-15T11:03:54;-0.30;99.90
20946;DHT22;10632;51.276;7.116;2024-01-15T11:06:26;-0.30;99.90
20946;DHT22;10632;51.276;7.116;2024-01-15T11:09:00;-0.30;99.90
20946;DHT22;10632;51.276;7.116;2024-01-15T11:11:29;-0.30;99.90
20946;DHT22;10632;51.276;7.116;2024-01-15T11:13:57;-0.30;99.90
20946;DHT22;10632;51.276;7.116;2024-01-15T11:16:24;-0.30;99.90
20946;DHT22;10632;51.276;7.116;2024-01-15T11:19:05;-0.30;99.90
20946;DHT22;10632;51.276;7.116;2024-01-15T11:21:42;-0.30;99.90
20946;DHT22;10632;51.276;7.116;2024-01-15T11:24:10;-0.30;99.90
20946;DHT22;10632;51.276;7.116;2024-01-15T11:26:44;-0.20;99.90
20946;DHT22;10632;51.276;7.116;2024-01-15T11:29:30;-0.20;99.90
20946;DHT22;10632;51.276;7.116;2024-01-15T11:31:59;-0.20;99.90
20946;DHT22;10632;51.276;7.116;2024-01-15T11:34:55;-0.20;99.90
20946;DHT22;10632;51.276;7.116;2024-01-15T11:37:23;-0.20;99.90
20946;DHT22;10632;51.276;7.116;2024-01-15T11:39:55;-0.20;99.90
20946;DHT22;10632;51.276;7.116;2024-01-15T11:42:22;-0.20;99.90
20946;DHT22;10632;51.276;7.116;2024-01-15T11:44:53;-0.20;99.90
20946;DHT22;10632;51.276;7.116;2024-01-15T11:50:15;-0.20;99.90
20946;DHT22;10632;51.276;7.116;2024-01-15T11:52:44;-0.20;99.90
20946;DHT22;10632;51.276;7.116;2024-01-15T11:55:19;-0.20;99.90
20946;DHT22;10632;51.276;7.116;2024-01-15T11:57:50;-0.20;99.90
20946;DHT22;10632;51.276;7.116;2024-01-15T12:00:21;-0.20;99.90
20946;DHT22;10632;51.276;7.116;2024-01-15T12:02:49;-0.20;99.90
20946;DHT22;10632;51.276;7.116;2024-01-15T12:05:18;-0.20;99.90
20946;DHT22;10632;51.276;7.116;2024-01-15T12:07:46;-0.20;99.90
20946;DHT22;10632;51.276;7.116;2024-01-15T12:10:15;-0.20;99.90
20946;DHT22;10632;51.276;7.116;2024-01-15T12:12:55;-0.20;99.90
20946;DHT22;10632;51.276;7.116;2024-01-15T12:15:26;-0.20;99.90
20946;DHT22;10632;51.276;7.116;2024-01-15T12:17:54;-0.20;99.90
20946;DHT22;10632;51.276;7.116;2024-01-15T12:20:26;-0.20;99.90
20946;DHT22;10632;51.276;7.116;2024-01-15T12:22:53;-0.20;99.90
20946;DHT22;10632;51.276;7.116;2024-01-15T12:25:21;-0.20;99.90
20946;DHT22;10632;51.276;7.116;2024-01-15T12:27:48;-0.20;99.90
20946;DHT22;10632;51.276;7.116;2024-01-15T12:30:15;-0.10;99.90
20946;DHT22;10632;51.276;7.116;2024-01-15T12:32:46;-0.10;99.90
20946;DHT22;10632;51.276;7.116;2024-01-15T12:35:14;-0.10;99.90
20946;DHT22;10632;51.276;7.116;2024-01-15T12:37:42;-0.10;99.90
20946;DHT22;10632;51.276;7.116;2024-01-15T12:40:10;-0.10;99.90
20946;DHT22;10632;51.276;7.116;2024-01-15T12:42:48;-0.10;99.90
20946;DHT22;10632;51.276;7.116;2024-01-15T12:45:16;-0.10;99.90
20946;DHT22;10632;51.276;7.116;2024-01-15T12:47:48;-0.10;99.90
20946;DHT22;10632;51.276;7.116;2024-01-15T12:50:16;-0.10;99.90
20946;DHT22;10632;51.276;7.116;2024-01-15T12:52:44;-0.10;99.90
20946;DHT22;10632;51.276;7.116;2024-01-15T12:55:11;-0.10;99.90
20946;DHT22;10632;51.276;7.116;2024-01-15T12:57:42;-0.10;99.90
20946;DHT22;10632;51.276;7.116;2024-01-15T13:00:11;-0.10;99.90
20946;DHT22;10632;51.276;7.116;2024-01-15T13:02:39;-0.10;99.90
20946;DHT22;10632;51.276;7.116;2024-01-15T13:05:09;-0.10;99.90
20946;DHT22;10632;51.276;7.116;2024-01-15T13:07:36;-0.10;99.90
20946;DHT22;10632;51.276;7.116;2024-01-15T13:10:03;0.00;99.90
20946;DHT22;10632;51.276;7.116;2024-01-15T13:12:30;0.00;99.90
20946;DHT22;10632;51.276;7.116;2024-01-15T13:14:58;0.00;99.90
20946;DHT22;10632;51.276;7.116;2024-01-15T13:17:27;0.00;99.90
20946;DHT22;10632;51.276;7.116;2024-01-15T13:19:54;0.00;99.90
20946;DHT22;10632;51.276;7.116;2024-01-15T13:22:22;0.00;99.90
20946;DHT22;10632;51.276;7.116;2024-01-15T13:24:55;0.00;99.90
20946;DHT22;10632;51.276;7.116;2024-01-15T13:27:22;0.00;99.90
20946;DHT22;10632;51.276;7.116;2024-01-15T13:29:49;0.00;99.90
20946;DHT22;10632;51.276;7.116;2024-01-15T13:32:22;0.00;99.90
20946;DHT22;10632;51.276;7.116;2024-01-15T13:34:53;0.00;99.90
20946;DHT22;10632;51.276;7.116;2024-01-15T13:37:21;0.00;99.90
20946;DHT22;10632;51.276;7.116;2024-01-15T13:39:53;0.00;99.90
20946;DHT22;10632;51.276;7.116;2024-01-15T13:42:23;0.00;99.90
20946;DHT22;10632;51.276;7.116;2024-01-15T13:44:52;0.00;99.90
20946;DHT22;10632;51.276;7.116;2024-01-15T13:47:20;0.00;99.90
20946;DHT22;10632;51.276;7.116;2024-01-15T13:49:47;0.00;99.90
20946;DHT22;10632;51.276;7.116;2024-01-15T13:52:16;0.00;99.90
20946;DHT22;10632;51.276;7.116;2024-01-15T13:54:43;0.00;99.90
20946;DHT22;10632;51.276;7.116;2024-01-15T13:57:12;0.00;99.90
20946;DHT22;10632;51.276;7.116;2024-01-15T13:59:39;0.00;99.90
20946;DHT22;10632;51.276;7.116;2024-01-15T14:02:05;0.00;99.90
20946;DHT22;10632;51.276;7.116;2024-01-15T14:04:32;0.00;99.90
20946;DHT22;10632;51.276;7.116;2024-01-15T14:06:59;0.00;99.90
20946;DHT22;10632;51.276;7.116;2024-01-15T14:09:27;0.00;99.90
20946;DHT22;10632;51.276;7.116;2024-01-15T14:11:54;0.00;99.90
20946;DHT22;10632;51.276;7.116;2024-01-15T14:14:22;0.00;99.90
20946;DHT22;10632;51.276;7.116;2024-01-15T14:16:49;0.00;99.90
20946;DHT22;10632;51.276;7.116;2024-01-15T14:19:17;0.00;99.90
20946;DHT22;10632;51.276;7.116;2024-01-15T14:21:46;0.00;99.90
20946;DHT22;10632;51.276;7.116;2024-01-15T14:24:13;0.10;99.90
20946;DHT22;10632;51.276;7.116;2024-01-15T14:26:40;0.00;99.90
20946;DHT22;10632;51.276;7.116;2024-01-15T14:29:07;0.00;99.90
20946;DHT22;10632;51.276;7.116;2024-01-15T14:31:36;0.00;99.90
20946;DHT22;10632;51.276;7.116;2024-01-15T14:34:03;0.00;99.90
20946;DHT22;10632;51.276;7.116;2024-01-15T14:36:30;0.00;99.90
20946;DHT22;10632;51.276;7.116;2024-01-15T14:38:57;0.00;99.90
20946;DHT22;10632;51.276;7.116;2024-01-15T14:41:24;0.00;99.90
20946;DHT22;10632;51.276;7.116;2024-01-15T14:43:52;0.00;99.90
20946;DHT22;10632;51.276;7.116;2024-01-15T14:46:18;0.00;99.90
20946;DHT22;10632;51.276;7.116;2024-01-15T14:48:47;0.00;99.90
20946;DHT22;10632;51.276;7.116;2024-01-15T14:51:14;0.00;99.90
20946;DHT22;10632;51.276;7.116;2024-01-15T14:53:42;0.00;99.90
20946;DHT22;10632;51.276;7.116;2024-01-15T14:56:10;0.00;99.90
20946;DHT22;10632;51.276;7.116;2024-01-15T14:58:37;0.00;99.90
20946;DHT22;10632;51.276;7.116;2024-01-15T15:01:04;0.00;99.90
20946;DHT22;10632;51.276;7.116;2024-01-15T15:03:31;0.00;99.90
20946;DHT22;10632;51.276;7.116;2024-01-15T15:06:00;0.00;99.90
20946;DHT22;10632;51.276;7.116;2024-01-15T15:08:30;0.00;99.90
20946;DHT22;10632;51.276;7.116;2024-01-15T15:10:58;-0.10;99.90
20946;DHT22;10632;51.276;7.116;2024-01-15T15:13:26;-0.10;99.90
20946;DHT22;10632;51.276;7.116;2024-01-15T15:15:53;-0.10;99.90
20946;DHT22;10632;51.276;7.116;2024-01-15T15:18:21;-0.10;99.90
20946;DHT22;10632;51.276;7.116;2024-01-15T15:20:49;-0.10;99.90
20946;DHT22;10632;51.276;7.116;2024-01-15T15:23:20;-0.10;99.90
20946;DHT22;10632;51.276;7.116;2024-01-15T15:25:48;-0.10;99.90
20946;DHT22;10632;51.276;7.116;2024-01-15T15:28:17;-0.10;99.90
20946;DHT22;10632;51.276;7.116;2024-01-15T15:30:44;-0.10;99.90
20946;DHT22;10632;51.276;7.116;2024-01-15T15:33:13;-0.10;99.90
20946;DHT22;10632;51.276;7.116;2024-01-15T15:35:41;-0.10;99.90
20946;DHT22;10632;51.276;7.116;2024-01-15T15:38:08;-0.10;99.90
20946;DHT22;10632;51.276;7.116;2024-01-15T15:40:40;-0.10;99.90
20946;DHT22;10632;51.276;7.116;2024-01-15T15:43:07;-0.10;99.90